createdAt,value
2023-05-02T00:00:34.630Z,6.00
2023-05-02T00:03:02.280Z,4.10
2023-05-02T00:05:30.057Z,6.63
2023-05-02T00:07:57.726Z,6.93
2023-05-02T00:10:25.452Z,6.20
2023-05-02T00:12:53.065Z,3.53
2023-05-02T00:15:20.688Z,7.00
2023-05-02T00:17:48.396Z,6.83
2023-05-02T00:20:16.206Z,5.93
2023-05-02T00:22:43.840Z,4.55
2023-05-02T00:25:16.181Z,4.63
2023-05-02T00:27:46.732Z,5.18
2023-05-02T00:30:14.733Z,4.75
2023-05-02T00:32:42.489Z,10.77
2023-05-02T00:35:10.549Z,5.75
2023-05-02T00:37:38.308Z,8.13
2023-05-02T00:40:06.282Z,11.10
2023-05-02T00:42:36.451Z,7.87
2023-05-02T00:45:06.902Z,5.15
2023-05-02T00:47:34.843Z,10.68
2023-05-02T00:50:05.563Z,7.47
2023-05-02T00:52:33.780Z,9.55
2023-05-02T00:55:02.177Z,4.78
2023-05-02T00:57:30.299Z,10.27
2023-05-02T00:59:58.233Z,16.60
2023-05-02T01:02:52.210Z,12.68
2023-05-02T01:05:22.272Z,12.23
2023-05-02T01:08:09.893Z,11.90
2023-05-02T01:10:37.473Z,10.23
2023-05-02T01:13:09.281Z,11.73
2023-05-02T01:15:38.336Z,14.80
2023-05-02T01:18:07.264Z,9.43
2023-05-02T01:20:35.889Z,10.00
2023-05-02T01:23:04.496Z,11.70
2023-05-02T01:25:50.077Z,19.88
2023-05-02T01:28:26.889Z,12.88
2023-05-02T01:30:54.865Z,20.35
2023-05-02T01:33:22.430Z,10.53
2023-05-02T01:35:50.923Z,11.95
2023-05-02T01:38:19.751Z,7.78
2023-05-02T01:40:47.874Z,16.97
2023-05-02T01:43:15.716Z,13.52
2023-05-02T01:45:44.575Z,10.38
2023-05-02T01:48:12.277Z,15.53
2023-05-02T01:50:40.273Z,8.13
2023-05-02T01:53:07.862Z,9.82
2023-05-02T01:55:35.629Z,17.52
2023-05-02T01:58:03.278Z,12.60
2023-05-02T02:00:31.794Z,16.30
2023-05-02T02:02:59.361Z,14.90
2023-05-02T02:05:26.951Z,15.10
2023-05-02T02:07:54.509Z,12.82
2023-05-02T02:10:22.088Z,15.07
2023-05-02T02:12:51.251Z,15.63
2023-05-02T02:15:31.237Z,14.98
2023-05-02T02:18:02.604Z,12.20
2023-05-02T02:20:30.300Z,12.05
2023-05-02T02:22:58.007Z,14.60
2023-05-02T02:25:27.040Z,7.15
2023-05-02T02:27:54.767Z,9.65
2023-05-02T02:30:22.434Z,9.70
2023-05-02T02:32:50.195Z,12.02
2023-05-02T02:35:17.720Z,10.00
2023-05-02T02:37:45.967Z,15.47
2023-05-02T02:40:17.013Z,7.97
2023-05-02T02:42:56.877Z,10.13
2023-05-02T02:45:40.187Z,8.48
2023-05-02T02:48:13.969Z,2.57
2023-05-02T02:51:03.462Z,4.07
2023-05-02T02:53:35.914Z,10.48
2023-05-02T02:56:06.028Z,9.00
2023-05-02T02:58:51.105Z,5.03
2023-05-02T03:01:23.277Z,6.32
2023-05-02T03:03:51.524Z,10.70
2023-05-02T03:06:19.320Z,7.88
2023-05-02T03:08:47.058Z,6.13
2023-05-02T03:11:16.540Z,7.10
2023-05-02T03:13:44.886Z,9.40
2023-05-02T03:16:31.459Z,12.20
2023-05-02T03:18:59.127Z,4.20
2023-05-02T03:21:26.718Z,11.10
2023-05-02T03:23:54.293Z,16.98
2023-05-02T03:26:21.910Z,7.43
2023-05-02T03:28:50.476Z,3.97
2023-05-02T03:31:18.099Z,7.32
2023-05-02T03:33:45.685Z,10.45
2023-05-02T03:36:13.349Z,3.95
2023-05-02T03:38:41.070Z,3.53
2023-05-02T03:41:08.618Z,8.07
2023-05-02T03:43:36.347Z,6.57
2023-05-02T03:46:08.052Z,6.33
2023-05-02T03:48:35.750Z,3.83
2023-05-02T03:51:03.973Z,3.72
2023-05-02T03:53:34.598Z,5.03
2023-05-02T03:56:02.105Z,2.30
2023-05-02T03:58:29.865Z,3.38
2023-05-02T04:00:57.429Z,7.60
2023-05-02T04:03:26.214Z,4.90
2023-05-02T04:05:55.185Z,5.68
2023-05-02T04:08:22.861Z,3.78
2023-05-02T04:10:53.141Z,3.63
2023-05-02T04:13:20.674Z,7.53
2023-05-02T04:15:48.260Z,5.97
2023-05-02T04:18:16.021Z,5.77
2023-05-02T04:20:45.387Z,5.45
2023-05-02T04:23:13.275Z,7.70
2023-05-02T04:25:41.016Z,9.75
2023-05-02T04:28:08.698Z,9.40
2023-05-02T04:30:36.775Z,16.15
2023-05-02T04:33:06.748Z,9.60
2023-05-02T04:35:34.295Z,16.27
2023-05-02T04:38:01.962Z,12.18
2023-05-02T04:40:29.511Z,5.88
2023-05-02T04:42:57.150Z,8.33
2023-05-02T04:45:24.690Z,5.53
2023-05-02T04:47:53.418Z,8.48
2023-05-02T04:50:21.143Z,6.93
2023-05-02T04:52:48.720Z,9.77
2023-05-02T04:55:16.269Z,10.43
2023-05-02T04:57:43.901Z,10.65
2023-05-02T05:00:11.937Z,8.20
2023-05-02T05:02:39.964Z,4.43
2023-05-02T05:05:07.745Z,6.97
2023-05-02T05:07:35.433Z,7.93
2023-05-02T05:10:03.831Z,4.18
2023-05-02T05:12:31.372Z,8.57
2023-05-02T05:14:59.744Z,11.82
2023-05-02T05:17:27.672Z,9.87
2023-05-02T05:19:55.254Z,10.35
2023-05-02T05:22:22.914Z,3.58
2023-05-02T05:24:55.918Z,6.63
2023-05-02T05:27:23.624Z,6.13
2023-05-02T05:29:51.529Z,12.82
2023-05-02T05:32:19.130Z,8.17
2023-05-02T05:34:46.738Z,5.57
2023-05-02T05:37:15.648Z,7.85
2023-05-02T05:39:43.221Z,4.00
2023-05-02T05:42:10.783Z,8.60
2023-05-02T05:44:38.428Z,4.38
2023-05-02T05:47:06.436Z,9.20
2023-05-02T05:49:38.570Z,3.23
2023-05-02T05:52:06.933Z,5.53
2023-05-02T05:54:34.533Z,7.53
2023-05-02T05:57:03.679Z,5.33
2023-05-02T05:59:31.335Z,8.70
2023-05-02T06:01:59.606Z,6.35
2023-05-02T06:04:27.256Z,10.20
2023-05-02T06:06:55.418Z,3.87
2023-05-02T06:09:23.136Z,8.80
2023-05-02T06:11:50.708Z,7.38
2023-05-02T06:14:21.335Z,7.80
2023-05-02T06:16:49.985Z,6.75
2023-05-02T06:19:17.794Z,5.38
2023-05-02T06:21:45.404Z,6.33
2023-05-02T06:24:13.090Z,8.30
2023-05-02T06:26:40.663Z,4.90
2023-05-02T06:29:08.233Z,8.45
2023-05-02T06:31:35.924Z,12.03
2023-05-02T06:34:03.829Z,9.98
2023-05-02T06:36:32.047Z,7.65
2023-05-02T06:38:59.620Z,4.40
2023-05-02T06:41:27.210Z,7.40
2023-05-02T06:43:54.785Z,9.60
2023-05-02T06:46:22.452Z,6.80
2023-05-02T06:48:50.176Z,3.95
2023-05-02T06:51:19.489Z,7.90
2023-05-02T06:53:47.087Z,5.07
2023-05-02T06:56:14.741Z,2.80
2023-05-02T06:58:42.398Z,3.58
2023-05-02T07:01:10.127Z,10.70
2023-05-02T07:03:39.415Z,4.10
2023-05-02T07:06:07.044Z,7.18
2023-05-02T07:08:34.734Z,6.68
2023-05-02T07:11:03.061Z,5.23
2023-05-02T07:13:30.836Z,6.75
2023-05-02T07:15:58.516Z,8.02
2023-05-02T07:18:26.938Z,5.03
2023-05-02T07:20:55.276Z,3.83
2023-05-02T07:23:22.837Z,4.13
2023-05-02T07:25:50.421Z,2.05
2023-05-02T07:28:18.146Z,3.30
2023-05-02T07:30:46.103Z,5.32
2023-05-02T07:33:13.933Z,8.13
2023-05-02T07:35:41.597Z,2.17
2023-05-02T07:38:09.287Z,6.22
2023-05-02T07:40:36.866Z,5.57
2023-05-02T07:43:04.436Z,5.85
2023-05-02T07:45:32.169Z,4.77
2023-05-02T07:47:59.886Z,3.92
2023-05-02T07:50:27.586Z,4.80
2023-05-02T07:52:58.176Z,3.57
2023-05-02T07:55:27.721Z,4.47
2023-05-02T07:57:56.111Z,6.78
2023-05-02T08:00:23.730Z,0.97
2023-05-02T08:02:54.949Z,2.08
2023-05-02T08:05:22.629Z,3.30
2023-05-02T08:07:50.579Z,2.42
2023-05-02T08:10:18.186Z,6.63
2023-05-02T08:12:46.953Z,3.28
2023-05-02T08:15:14.605Z,8.98
2023-05-02T08:17:42.475Z,4.33
2023-05-02T08:20:10.319Z,4.25
2023-05-02T08:22:37.852Z,3.50
2023-05-02T08:25:05.634Z,2.03
2023-05-02T08:27:35.556Z,3.22
2023-05-02T08:30:03.535Z,5.18
2023-05-02T08:32:34.404Z,2.00
2023-05-02T08:35:02.768Z,2.77
2023-05-02T08:37:30.622Z,5.72
2023-05-02T08:39:58.645Z,6.03
2023-05-02T08:42:26.565Z,2.17
2023-05-02T08:44:54.376Z,3.22
2023-05-02T08:47:22.392Z,3.78
2023-05-02T08:49:53.632Z,2.33
2023-05-02T08:52:21.244Z,1.80
2023-05-02T08:54:49.410Z,5.50
2023-05-02T08:57:17.100Z,2.22
2023-05-02T08:59:44.686Z,5.67
2023-05-02T09:02:28.448Z,3.25
2023-05-02T09:04:56.337Z,2.20
2023-05-02T09:07:24.027Z,4.97
2023-05-02T09:09:51.614Z,6.45
2023-05-02T09:12:22.419Z,5.20
2023-05-02T09:14:49.970Z,4.03
2023-05-02T09:17:17.644Z,3.03
2023-05-02T09:19:45.212Z,2.88
2023-05-02T09:22:12.953Z,6.00
2023-05-02T09:24:40.601Z,3.53
2023-05-02T09:27:08.183Z,4.43
2023-05-02T09:29:36.483Z,3.67
2023-05-02T09:32:06.822Z,2.07
2023-05-02T09:34:34.696Z,7.22
2023-05-02T09:37:04.108Z,3.88
2023-05-02T09:39:32.084Z,3.85
2023-05-02T09:41:59.967Z,5.95
2023-05-02T09:44:28.089Z,3.97
2023-05-02T09:46:56.395Z,7.10
2023-05-02T09:49:40.100Z,3.63
2023-05-02T09:52:11.029Z,3.78
2023-05-02T09:54:38.883Z,3.05
2023-05-02T09:57:07.473Z,5.60
2023-05-02T09:59:35.298Z,7.47
2023-05-02T10:02:07.409Z,4.53
2023-05-02T10:04:35.323Z,4.10
2023-05-02T10:07:03.405Z,7.28
2023-05-02T10:09:34.268Z,3.85
2023-05-02T10:12:08.489Z,4.60
2023-05-02T10:14:36.810Z,3.53
2023-05-02T10:17:14.299Z,6.13
2023-05-02T10:19:57.457Z,3.90
2023-05-02T10:22:25.166Z,3.03
2023-05-02T10:24:52.733Z,3.08
2023-05-02T10:27:20.413Z,4.13
2023-05-02T10:29:47.958Z,4.88
2023-05-02T10:32:15.670Z,6.45
2023-05-02T10:34:43.213Z,3.70
2023-05-02T10:37:10.930Z,4.35
2023-05-02T10:39:47.491Z,2.27
2023-05-02T10:42:15.075Z,3.50
2023-05-02T10:44:42.888Z,7.38
2023-05-02T10:47:27.222Z,2.30
2023-05-02T10:49:56.273Z,2.05
2023-05-02T10:52:27.631Z,3.00
2023-05-02T10:55:14.126Z,1.77
2023-05-02T10:58:00.002Z,8.82
2023-05-02T11:00:31.217Z,1.00
2023-05-02T11:02:59.225Z,8.77
2023-05-02T11:05:27.170Z,3.67
2023-05-02T11:08:13.296Z,3.80
2023-05-02T11:10:52.853Z,0.95
2023-05-02T11:13:40.486Z,2.10
2023-05-02T11:16:08.142Z,1.70
2023-05-02T11:18:59.507Z,3.40
2023-05-02T11:21:30.190Z,3.17
2023-05-02T11:24:27.167Z,2.42
2023-05-02T11:26:55.375Z,6.93
2023-05-02T11:29:43.255Z,3.05
2023-05-02T11:32:10.891Z,2.03
2023-05-02T11:34:43.228Z,8.43
2023-05-02T11:37:14.220Z,3.90
2023-05-02T11:39:42.020Z,2.67
2023-05-02T11:42:09.553Z,1.67
2023-05-02T11:44:56.758Z,0.75
2023-05-02T11:47:24.458Z,1.70
2023-05-02T11:49:52.107Z,1.45
2023-05-02T11:52:19.674Z,3.28
2023-05-02T11:54:49.502Z,1.73
2023-05-02T11:57:17.230Z,1.40
2023-05-02T11:59:54.245Z,2.85
2023-05-02T12:02:22.461Z,2.17
2023-05-02T12:04:50.172Z,3.03
2023-05-02T12:07:17.895Z,4.85
2023-05-02T12:09:54.617Z,2.38
2023-05-02T12:12:22.725Z,1.15
2023-05-02T12:14:50.371Z,1.30
2023-05-02T12:17:18.043Z,1.40
2023-05-02T12:19:46.089Z,3.70
2023-05-02T12:22:14.602Z,3.50
2023-05-02T12:24:43.535Z,4.80
2023-05-02T12:27:14.864Z,3.35
2023-05-02T12:29:43.011Z,3.53
2023-05-02T12:32:11.204Z,1.90
2023-05-02T12:34:39.051Z,4.35
2023-05-02T12:37:06.941Z,4.00
2023-05-02T12:39:38.213Z,4.07
2023-05-02T12:42:15.583Z,4.35
2023-05-02T12:44:43.918Z,3.05
2023-05-02T12:47:12.108Z,5.13
2023-05-02T12:50:09.463Z,2.63
2023-05-02T12:52:50.255Z,3.83
2023-05-02T12:55:17.840Z,2.60
2023-05-02T12:57:45.608Z,3.15
2023-05-02T13:00:13.521Z,1.00
2023-05-02T13:02:41.114Z,5.00
2023-05-02T13:05:17.546Z,3.22
2023-05-02T13:07:45.368Z,1.77
2023-05-02T13:10:13.540Z,4.32
2023-05-02T13:12:41.574Z,2.60
2023-05-02T13:15:09.379Z,3.03
2023-05-02T13:17:37.013Z,4.25
2023-05-02T13:20:05.808Z,1.50
2023-05-02T13:22:33.498Z,3.15
2023-05-02T13:25:01.164Z,2.33
2023-05-02T13:27:28.930Z,2.78
2023-05-02T13:29:56.605Z,4.55
2023-05-02T13:32:24.264Z,1.90
2023-05-02T13:34:52.039Z,3.85
2023-05-02T13:37:19.729Z,3.60
2023-05-02T13:39:47.652Z,1.67
2023-05-02T13:42:15.351Z,1.83
2023-05-02T13:44:43.019Z,2.30
2023-05-02T13:47:10.663Z,3.92
2023-05-02T13:49:38.298Z,1.40
2023-05-02T13:52:05.898Z,3.17
2023-05-02T13:54:33.422Z,4.68
2023-05-02T13:57:01.247Z,3.05
2023-05-02T13:59:28.831Z,5.20
2023-05-02T14:01:56.563Z,1.13
2023-05-02T14:04:24.165Z,5.82
2023-05-02T14:06:51.777Z,1.65
2023-05-02T14:09:19.414Z,12.30
2023-05-02T14:11:47.474Z,2.83
2023-05-02T14:14:15.098Z,4.28
2023-05-02T14:16:42.718Z,2.93
2023-05-02T14:19:10.363Z,5.10
2023-05-02T14:21:38.860Z,2.00
2023-05-02T14:24:06.918Z,2.70
2023-05-02T14:26:34.629Z,4.07
2023-05-02T14:29:02.447Z,2.10
2023-05-02T14:31:30.190Z,3.47
2023-05-02T14:33:57.851Z,4.50
2023-05-02T14:36:28.386Z,4.20
2023-05-02T14:38:56.131Z,2.78
2023-05-02T14:41:24.192Z,3.08
2023-05-02T14:43:53.343Z,3.17
2023-05-02T14:46:21.079Z,3.03
2023-05-02T14:48:48.730Z,6.80
2023-05-02T14:51:16.801Z,2.87
2023-05-02T14:53:44.319Z,3.78
2023-05-02T14:56:16.160Z,1.92
2023-05-02T14:58:44.125Z,5.90
2023-05-02T15:01:20.862Z,1.25
2023-05-02T15:04:05.371Z,3.00
2023-05-02T15:06:35.898Z,3.42
2023-05-02T15:09:05.157Z,4.35
2023-05-02T15:11:33.121Z,5.03
2023-05-02T15:14:01.065Z,3.55
2023-05-02T15:16:28.746Z,4.80
2023-05-02T15:18:56.528Z,5.40
2023-05-02T15:21:24.099Z,1.30
2023-05-02T15:23:51.699Z,2.03
2023-05-02T15:26:19.317Z,2.97
2023-05-02T15:28:47.031Z,2.38
2023-05-02T15:31:14.604Z,1.85
2023-05-02T15:33:42.267Z,3.13
2023-05-02T15:36:10.506Z,2.40
2023-05-02T15:38:42.882Z,1.05
2023-05-02T15:41:13.161Z,4.33
2023-05-02T15:43:41.037Z,1.08
2023-05-02T15:46:08.591Z,4.70
2023-05-02T15:48:36.354Z,4.03
2023-05-02T15:51:05.546Z,3.72
2023-05-02T15:53:34.695Z,3.58
2023-05-02T15:56:02.343Z,2.73
2023-05-02T15:58:30.155Z,7.35
2023-05-02T16:00:57.693Z,3.30
2023-05-02T16:03:25.462Z,6.82
2023-05-02T16:05:54.269Z,2.70
2023-05-02T16:08:22.112Z,3.00
2023-05-02T16:10:49.725Z,2.00
2023-05-02T16:13:17.451Z,3.50
2023-05-02T16:15:45.120Z,3.40
2023-05-02T16:18:13.196Z,1.80
2023-05-02T16:20:42.378Z,1.92
2023-05-02T16:23:10.153Z,4.40
2023-05-02T16:25:37.664Z,1.55
2023-05-02T16:28:07.234Z,5.55
2023-05-02T16:30:37.314Z,1.07
2023-05-02T16:33:04.985Z,3.20
2023-05-02T16:35:32.676Z,4.03
2023-05-02T16:38:00.386Z,3.33
2023-05-02T16:40:29.403Z,1.85
2023-05-02T16:42:57.081Z,4.45
2023-05-02T16:45:24.715Z,2.37
2023-05-02T16:47:53.053Z,2.60
2023-05-02T16:50:20.811Z,2.78
2023-05-02T16:52:48.490Z,1.85
2023-05-02T16:55:16.750Z,1.87
2023-05-02T16:57:44.422Z,1.80
2023-05-02T17:00:14.827Z,1.60
2023-05-02T17:02:42.405Z,2.43
2023-05-02T17:05:11.348Z,1.27
2023-05-02T17:07:39.034Z,3.03
2023-05-02T17:10:13.734Z,6.13
2023-05-02T17:12:41.657Z,2.83
2023-05-02T17:15:16.745Z,2.22
2023-05-02T17:17:45.552Z,3.20
2023-05-02T17:20:21.420Z,2.13
2023-05-02T17:22:49.203Z,1.92
2023-05-02T17:25:18.420Z,3.67
2023-05-02T17:27:46.843Z,2.77
2023-05-02T17:30:15.040Z,3.33
2023-05-02T17:32:48.049Z,2.50
2023-05-02T17:35:19.210Z,1.87
2023-05-02T17:37:47.592Z,2.08
2023-05-02T17:40:15.385Z,1.10
2023-05-02T17:42:47.072Z,1.73
2023-05-02T17:45:16.146Z,2.83
2023-05-02T17:47:44.614Z,1.63
2023-05-02T17:50:14.894Z,5.03
2023-05-02T17:52:42.775Z,1.80
2023-05-02T17:55:11.657Z,2.00
2023-05-02T17:57:46.947Z,1.60
2023-05-02T18:00:15.518Z,5.22
2023-05-02T18:02:45.148Z,4.43
2023-05-02T18:05:14.042Z,2.78
2023-05-02T18:07:45.352Z,1.55
2023-05-02T18:10:17.822Z,1.80
2023-05-02T18:12:45.678Z,2.53
2023-05-02T18:15:14.451Z,3.15
2023-05-02T18:17:45.251Z,3.93
2023-05-02T18:20:12.866Z,1.13
2023-05-02T18:22:40.884Z,2.10
2023-05-02T18:25:08.764Z,3.37
2023-05-02T18:27:36.484Z,2.35
2023-05-02T18:30:05.398Z,2.47
2023-05-02T18:32:35.961Z,2.88
2023-05-02T18:35:06.514Z,4.60
2023-05-02T18:37:36.365Z,3.95
2023-05-02T18:40:05.047Z,3.92
2023-05-02T18:42:35.337Z,1.53
2023-05-02T18:45:05.167Z,2.25
2023-05-02T18:47:37.094Z,2.60
2023-05-02T18:50:05.254Z,3.30
2023-05-02T18:52:35.835Z,4.25
2023-05-02T18:55:05.112Z,2.97
2023-05-02T18:57:34.117Z,2.13
2023-05-02T19:00:02.099Z,2.93
2023-05-02T19:02:30.011Z,0.57
2023-05-02T19:05:00.908Z,2.90
2023-05-02T19:07:35.082Z,3.50
2023-05-02T19:10:04.324Z,3.67
2023-05-02T19:12:33.566Z,1.95
2023-05-02T19:15:01.815Z,2.93
2023-05-02T19:17:30.573Z,1.52
2023-05-02T19:19:58.901Z,2.88
2023-05-02T19:22:28.116Z,2.97
2023-05-02T19:25:01.866Z,2.00
2023-05-02T19:27:30.319Z,1.70
2023-05-02T19:29:59.875Z,4.70
2023-05-02T19:32:27.947Z,1.63
2023-05-02T19:35:00.114Z,6.63
2023-05-02T19:37:31.178Z,4.65
2023-05-02T19:39:59.526Z,4.23
2023-05-02T19:42:27.926Z,2.22
2023-05-02T19:44:58.567Z,4.97
2023-05-02T19:47:27.451Z,3.35
2023-05-02T19:49:55.374Z,2.63
2023-05-02T19:52:22.960Z,1.23
2023-05-02T19:54:54.778Z,3.47
2023-05-02T19:57:22.522Z,0.50
2023-05-02T19:59:50.067Z,2.58
2023-05-02T20:02:17.637Z,3.70
2023-05-02T20:04:45.262Z,2.37
2023-05-02T20:07:12.881Z,2.03
2023-05-02T20:09:40.561Z,2.22
2023-05-02T20:12:09.272Z,6.55
2023-05-02T20:14:36.864Z,3.70
2023-05-02T20:17:05.534Z,4.20
2023-05-02T20:19:33.147Z,4.50
2023-05-02T20:22:00.757Z,3.37
2023-05-02T20:24:28.239Z,4.05
2023-05-02T20:26:55.957Z,0.82
2023-05-02T20:29:24.071Z,3.30
2023-05-02T20:31:52.136Z,3.45
2023-05-02T20:34:20.903Z,3.85
2023-05-02T20:36:48.571Z,1.27
2023-05-02T20:39:20.437Z,4.67
2023-05-02T20:41:49.825Z,3.88
2023-05-02T20:44:22.758Z,5.05
2023-05-02T20:46:51.648Z,3.80
2023-05-02T20:49:19.294Z,1.85
2023-05-02T20:51:46.985Z,1.80
2023-05-02T20:54:14.711Z,3.37
2023-05-02T20:56:42.215Z,3.50
2023-05-02T20:59:10.020Z,1.88
2023-05-02T21:01:37.650Z,2.65
2023-05-02T21:04:05.678Z,4.57
2023-05-02T21:06:33.372Z,6.45
2023-05-02T21:09:02.224Z,1.48
2023-05-02T21:11:30.045Z,5.63
2023-05-02T21:13:57.524Z,2.67
2023-05-02T21:16:25.909Z,1.83
2023-05-02T21:18:53.808Z,4.27
2023-05-02T21:21:21.380Z,1.42
2023-05-02T21:23:48.949Z,2.92
2023-05-02T21:26:16.512Z,1.75
2023-05-02T21:28:44.139Z,4.17
2023-05-02T21:31:11.977Z,2.13
2023-05-02T21:33:41.592Z,1.23
2023-05-02T21:36:09.380Z,1.50
2023-05-02T21:38:36.993Z,5.90
2023-05-02T21:41:04.882Z,0.80
2023-05-02T21:43:32.625Z,3.00
2023-05-02T21:46:02.939Z,3.13
2023-05-02T21:48:31.153Z,1.02
2023-05-02T21:50:58.716Z,3.80
2023-05-02T21:53:27.191Z,3.80
2023-05-02T21:55:54.676Z,1.75
2023-05-02T21:58:22.348Z,3.85
2023-05-02T22:00:49.851Z,0.97
2023-05-02T22:03:17.771Z,4.18
2023-05-02T22:05:45.588Z,3.70
2023-05-02T22:08:13.685Z,1.63
2023-05-02T22:10:44.409Z,2.75
2023-05-02T22:13:12.649Z,4.10
2023-05-02T22:15:46.475Z,2.30
2023-05-02T22:18:17.489Z,2.73
2023-05-02T22:20:45.657Z,2.47
2023-05-02T22:23:13.535Z,3.90
2023-05-02T22:25:41.984Z,1.47
2023-05-02T22:28:11.651Z,1.83
2023-05-02T22:30:39.601Z,1.80
2023-05-02T22:33:07.733Z,4.17
2023-05-02T22:35:35.528Z,2.33
2023-05-02T22:38:03.507Z,3.10
2023-05-02T22:40:31.586Z,0.95
2023-05-02T22:42:59.352Z,0.70
2023-05-02T22:45:27.301Z,1.25
2023-05-02T22:47:55.152Z,4.65
2023-05-02T22:50:22.784Z,4.77
2023-05-02T22:52:51.176Z,3.35
2023-05-02T22:55:19.479Z,2.78
2023-05-02T22:57:47.879Z,2.60
2023-05-02T23:00:17.109Z,2.25
2023-05-02T23:02:45.374Z,0.80
2023-05-02T23:05:13.066Z,2.67
2023-05-02T23:07:40.892Z,2.63
2023-05-02T23:10:08.900Z,2.70
2023-05-02T23:12:36.518Z,3.22
2023-05-02T23:15:04.243Z,1.13
2023-05-02T23:17:31.943Z,0.93
2023-05-02T23:19:59.714Z,2.38
2023-05-02T23:22:27.340Z,4.57
2023-05-02T23:24:54.910Z,2.45
2023-05-02T23:27:22.589Z,2.28
2023-05-02T23:29:50.270Z,3.38
2023-05-02T23:32:17.914Z,2.63
2023-05-02T23:34:45.626Z,2.70
2023-05-02T23:37:14.405Z,4.90
2023-05-02T23:39:42.024Z,1.77
2023-05-02T23:42:09.553Z,3.33
2023-05-02T23:44:37.183Z,2.30
2023-05-02T23:47:04.916Z,0.97
2023-05-02T23:49:32.601Z,1.23
2023-05-02T23:52:01.337Z,1.65
2023-05-02T23:54:31.926Z,1.23
2023-05-02T23:57:01.158Z,1.53
2023-05-02T23:59:28.712Z,1.10
